Time;durP1;ratioP1;P1;durP2;ratioP2;P2;SDS_P1;SDS_P2;PMS_P1;PMS_P2;Temp;Humidity;BMP_temperature;BMP_pressure;BME280_temperature;BME280_humidity;BME280_pressure;Samples;Min_cycle;Max_cycle;Signal;HPM_P1;HPM_P2
2022/04/04 00:02:03;;;;;;;2.50;1.67;;;;;9.00;101656.00;;;;5028770;28;20234;-79
2022/04/04 00:04:30;;;;;;;1.70;1.38;;;;;8.90;101651.00;;;;5044504;28;20674;-78
2022/04/04 00:06:59;;;;;;;2.22;1.38;;;;;8.90;101657.00;;;;5047606;28;20693;-78
2022/04/04 00:09:27;;;;;;;2.10;1.50;;;;;8.90;101650.00;;;;5038328;28;20199;-78
2022/04/04 00:11:54;;;;;;;2.45;1.50;;;;;8.90;101649.00;;;;5040080;28;20207;-78
2022/04/04 00:14:23;;;;;;;4.50;1.50;;;;;8.90;101647.00;;;;5045387;28;20204;-78
2022/04/04 00:16:50;;;;;;;2.53;1.65;;;;;8.90;101641.00;;;;5031258;28;20196;-78
2022/04/04 00:19:17;;;;;;;2.60;1.80;;;;;8.80;101627.00;;;;5048483;28;20195;-79
2022/04/04 00:21:45;;;;;;;2.75;1.55;;;;;8.80;101629.00;;;;5045569;28;20219;-79
2022/04/04 00:24:12;;;;;;;2.65;1.42;;;;;8.80;101626.00;;;;5048076;28;20276;-78
2022/04/04 00:26:40;;;;;;;3.15;2.10;;;;;8.80;101612.00;;;;5048079;28;20203;-78
2022/04/04 00:29:07;;;;;;;1.80;1.58;;;;;8.80;101608.00;;;;5045749;28;20842;-79
2022/04/04 00:31:35;;;;;;;2.00;1.80;;;;;8.80;101606.00;;;;5041426;28;20673;-79
2022/04/04 00:34:03;;;;;;;3.15;2.00;;;;;8.80;101594.00;;;;5028387;28;20204;-79
2022/04/04 00:36:30;;;;;;;2.78;2.22;;;;;8.80;101593.00;;;;5027760;28;20197;-78
2022/04/04 00:38:57;;;;;;;3.17;2.05;;;;;8.80;101595.00;;;;5031130;28;20195;-79
2022/04/04 00:41:25;;;;;;;2.60;1.88;;;;;8.80;101590.00;;;;5034043;28;20200;-79
2022/04/04 00:43:53;;;;;;;2.70;2.13;;;;;8.80;101577.00;;;;5027697;28;20628;-79
2022/04/04 00:46:21;;;;;;;2.55;1.92;;;;;8.80;101583.00;;;;5035135;28;20896;-78
2022/04/04 00:48:49;;;;;;;3.28;2.40;;;;;8.80;101581.00;;;;5045778;28;20210;-79
2022/04/04 00:51:17;;;;;;;2.60;1.90;;;;;8.80;101575.00;;;;5041701;28;20702;-79
2022/04/04 00:53:44;;;;;;;3.08;2.30;;;;;8.80;101566.00;;;;5067967;28;20194;-78
2022/04/04 00:56:12;;;;;;;3.40;2.42;;;;;8.80;101562.00;;;;5047925;28;20254;-78
2022/04/04 00:58:40;;;;;;;2.55;2.03;;;;;8.80;101562.00;;;;5047444;28;20210;-79
2022/04/04 01:01:08;;;;;;;3.38;2.40;;;;;8.80;101558.00;;;;5058651;28;20206;-78
2022/04/04 01:03:35;;;;;;;3.30;2.15;;;;;8.80;101554.00;;;;5053798;28;20230;-78
2022/04/04 01:06:04;;;;;;;3.17;2.30;;;;;8.80;101554.00;;;;5046052;28;20199;-78
2022/04/04 01:08:31;;;;;;;3.63;2.10;;;;;8.80;101552.00;;;;5047107;28;20464;-78
2022/04/04 01:10:58;;;;;;;3.13;2.35;;;;;8.80;101548.00;;;;5047094;28;20223;-78
2022/04/04 01:13:26;;;;;;;4.18;2.20;;;;;8.70;101537.00;;;;5047332;28;20286;-78
2022/04/04 01:15:53;;;;;;;2.42;1.98;;;;;8.70;101536.00;;;;5043145;28;20206;-78
2022/04/04 01:18:20;;;;;;;3.30;2.42;;;;;8.80;101532.00;;;;5047242;28;20220;-78
2022/04/04 01:20:48;;;;;;;5.13;2.95;;;;;8.70;101528.00;;;;5038406;28;20196;-78
2022/04/04 01:23:22;;;;;;;4.00;2.45;;;;;8.70;101519.00;;;;5027711;28;20228;-78
2022/04/04 01:25:50;;;;;;;4.10;3.00;;;;;8.70;101519.00;;;;5028461;28;20196;-78
2022/04/04 01:28:19;;;;;;;2.80;2.38;;;;;8.70;101511.00;;;;5047863;28;20199;-79
2022/04/04 01:30:51;;;;;;;3.45;2.53;;;;;8.70;101510.00;;;;5044232;28;20195;-78
2022/04/04 01:33:19;;;;;;;4.45;2.60;;;;;8.80;101508.00;;;;5047845;28;20326;-79
2022/04/04 01:35:46;;;;;;;3.75;2.45;;;;;8.80;101494.00;;;;5047528;28;20729;-78
2022/04/04 01:38:14;;;;;;;4.05;3.00;;;;;8.80;101492.00;;;;5047997;28;20207;-78
2022/04/04 01:40:41;;;;;;;3.92;3.08;;;;;8.80;101492.00;;;;5039816;28;20283;-78
2022/04/04 01:43:10;;;;;;;4.03;3.13;;;;;8.80;101486.00;;;;5027651;28;20226;-79
2022/04/04 01:48:22;;;;;;;3.95;2.80;;;;;8.90;101471.00;;;;5047176;28;20592;-78
2022/04/04 01:50:50;;;;;;;5.00;3.03;;;;;8.90;101466.00;;;;5043550;28;20196;-78
2022/04/04 01:53:27;;;;;;;3.38;2.80;;;;;8.90;101459.00;;;;5050914;28;20198;-78
2022/04/04 01:55:56;;;;;;;3.65;2.88;;;;;8.90;101453.00;;;;5030918;28;20210;-78
2022/04/04 01:58:25;;;;;;;4.22;3.10;;;;;8.90;101448.00;;;;5049637;28;20544;-78
2022/04/04 02:00:53;;;;;;;5.63;3.10;;;;;9.00;101434.00;;;;5044827;28;20296;-78
2022/04/04 02:03:21;;;;;;;4.10;3.25;;;;;9.00;101428.00;;;;5058622;28;20237;-78
2022/04/04 02:05:48;;;;;;;4.88;3.38;;;;;9.00;101419.00;;;;5052808;28;20215;-78
2022/04/04 02:08:15;;;;;;;3.95;3.03;;;;;9.00;101416.00;;;;5043096;28;20238;-78
2022/04/04 02:10:44;;;;;;;3.95;3.03;;;;;9.10;101416.00;;;;5054601;28;20199;-77
2022/04/04 02:13:11;;;;;;;5.07;3.38;;;;;9.10;101415.00;;;;5057902;28;20251;-77
2022/04/04 02:15:40;;;;;;;4.82;3.53;;;;;9.10;101403.00;;;;5043975;28;20207;-78
2022/04/04 02:18:07;;;;;;;3.60;2.97;;;;;9.20;101397.00;;;;5049506;28;20334;-78
2022/04/04 02:20:35;;;;;;;3.97;3.20;;;;;9.20;101389.00;;;;5047535;28;20201;-78
2022/04/04 02:23:02;;;;;;;3.95;3.17;;;;;9.20;101383.00;;;;5030933;28;20767;-78
2022/04/04 02:25:30;;;;;;;4.80;3.60;;;;;9.20;101391.00;;;;5030529;28;20196;-78
2022/04/04 02:27:57;;;;;;;5.10;3.20;;;;;9.30;101371.00;;;;5049017;28;20207;-77
2022/04/04 02:30:24;;;;;;;3.90;3.13;;;;;9.30;101365.00;;;;5036717;28;20633;-78
2022/04/04 02:32:53;;;;;;;3.35;2.97;;;;;9.30;101366.00;;;;5038173;28;20282;-78
2022/04/04 02:35:20;;;;;;;5.28;3.65;;;;;9.40;101356.00;;;;5050397;28;20199;-78
2022/04/04 02:37:48;;;;;;;5.35;3.20;;;;;9.40;101351.00;;;;5050680;28;20613;-78
2022/04/04 02:40:15;;;;;;;6.72;3.75;;;;;9.40;101345.00;;;;5049971;28;20753;-78
2022/04/04 02:42:43;;;;;;;4.40;3.58;;;;;9.40;101340.00;;;;5033172;28;21150;-78
2022/04/04 02:45:10;;;;;;;4.57;3.60;;;;;9.40;101336.00;;;;5045065;28;20207;-78
2022/04/04 02:47:37;;;;;;;3.33;2.92;;;;;9.50;101333.00;;;;5046843;28;20208;-78
2022/04/04 02:50:08;;;;;;;4.25;3.30;;;;;9.50;101331.00;;;;5049635;28;20199;-78
2022/04/04 02:52:35;;;;;;;4.65;3.72;;;;;9.50;101321.00;;;;5031408;28;20220;-77
2022/04/04 02:56:28;;;;;;;7.47;3.33;;;;;9.50;101316.00;;;;5030241;28;20254;-78
2022/04/04 02:57:49;;;;;;;4.53;3.17;;;;;9.50;101310.00;;;;5030095;28;20192;-78
2022/04/04 03:00:19;;;;;;;4.45;3.17;;;;;9.60;101306.00;;;;5048423;28;20192;-78
2022/04/04 03:02:47;;;;;;;3.65;2.97;;;;;9.60;101297.00;;;;5049483;28;20226;-78
2022/04/04 03:05:16;;;;;;;3.67;3.03;;;;;9.60;101304.00;;;;5049148;28;20261;-78
2022/04/04 03:07:44;;;;;;;4.28;3.17;;;;;9.70;101290.00;;;;5046023;28;20235;-77
2022/04/04 03:10:13;;;;;;;4.95;2.72;;;;;9.70;101289.00;;;;5049131;28;20203;-78
2022/04/04 03:12:42;;;;;;;4.07;3.08;;;;;9.70;101277.00;;;;5048371;28;20207;-78
2022/04/04 03:15:12;;;;;;;4.60;2.70;;;;;9.70;101265.00;;;;5055946;28;20285;-78
2022/04/04 03:17:40;;;;;;;3.83;3.03;;;;;9.80;101269.00;;;;5054910;28;20223;-78
2022/04/04 03:20:09;;;;;;;3.20;2.85;;;;;9.80;101266.00;;;;5047344;28;20200;-78
2022/04/04 03:22:38;;;;;;;3.60;2.78;;;;;9.80;101264.00;;;;5042995;28;20219;-78
2022/04/04 03:25:08;;;;;;;4.55;3.40;;;;;9.90;101256.00;;;;5049572;28;20634;-78
2022/04/04 03:27:36;;;;;;;4.50;3.03;;;;;9.90;101255.00;;;;5048062;28;20184;-79
2022/04/04 03:30:03;;;;;;;3.70;2.97;;;;;9.90;101248.00;;;;5049158;28;20191;-77
2022/04/04 03:32:31;;;;;;;3.42;3.13;;;;;9.90;101236.00;;;;5049139;28;20196;-78
2022/04/04 03:34:58;;;;;;;4.22;2.72;;;;;10.00;101236.00;;;;5049191;28;20205;-78
2022/04/04 03:37:25;;;;;;;5.03;3.20;;;;;10.00;101230.00;;;;5048608;28;20697;-79
2022/04/04 03:39:54;;;;;;;5.82;3.20;;;;;10.00;101221.00;;;;5033592;28;20677;-78
2022/04/04 03:42:22;;;;;;;4.88;2.78;;;;;10.00;101223.00;;;;5030946;28;20627;-79
2022/04/04 03:44:49;;;;;;;4.88;2.65;;;;;10.10;101217.00;;;;5049248;28;20589;-79
2022/04/04 03:47:17;;;;;;;3.33;2.63;;;;;10.10;101214.00;;;;5048639;28;20199;-78
2022/04/04 03:49:44;;;;;;;3.22;2.78;;;;;10.10;101211.00;;;;5042685;28;20200;-79
2022/04/04 03:52:12;;;;;;;2.95;2.50;;;;;10.10;101207.00;;;;5047677;28;20211;-78
2022/04/04 03:54:40;;;;;;;5.20;2.75;;;;;10.20;101202.00;;;;5049480;28;20310;-78
2022/04/04 03:57:08;;;;;;;4.63;3.38;;;;;10.20;101196.00;;;;5031629;28;20671;-78
2022/04/04 03:59:35;;;;;;;4.47;3.05;;;;;10.20;101181.00;;;;5029115;28;20192;-78
2022/04/04 04:02:03;;;;;;;3.15;2.85;;;;;10.20;101177.00;;;;5043870;28;20206;-79
2022/04/04 04:04:30;;;;;;;4.78;2.67;;;;;10.20;101179.00;;;;5049021;28;20595;-78
2022/04/04 04:06:57;;;;;;;5.40;2.75;;;;;10.20;101166.00;;;;5048680;28;20199;-78
2022/04/04 04:09:24;;;;;;;3.42;2.88;;;;;10.20;101164.00;;;;5046978;28;20222;-77
2022/04/04 04:11:54;;;;;;;4.35;3.10;;;;;10.30;101161.00;;;;5044227;28;20208;-78
2022/04/04 04:14:24;;;;;;;4.50;2.97;;;;;10.30;101150.00;;;;5047983;28;20716;-78
2022/04/04 04:16:51;;;;;;;5.15;3.10;;;;;10.30;101142.00;;;;5047776;28;20210;-79
2022/04/04 04:22:03;;;;;;;3.63;2.78;;;;;10.30;101143.00;;;;5060444;28;20252;-78
2022/04/04 04:24:31;;;;;;;3.90;3.00;;;;;10.30;101130.00;;;;5068306;28;20280;-78
2022/04/04 04:26:58;;;;;;;4.25;3.08;;;;;10.40;101125.00;;;;5047961;28;20192;-78
2022/04/04 04:29:26;;;;;;;3.63;3.33;;;;;10.40;101116.00;;;;5047939;28;20201;-78
2022/04/04 04:31:54;;;;;;;4.25;3.45;;;;;10.40;101111.00;;;;5042662;28;20199;-78
2022/04/04 04:34:21;;;;;;;3.53;3.15;;;;;10.40;101106.00;;;;5055382;28;20562;-78
2022/04/04 04:36:48;;;;;;;3.60;3.22;;;;;10.40;101103.00;;;;5047815;28;20685;-79
2022/04/04 04:39:15;;;;;;;5.30;3.58;;;;;10.40;101096.00;;;;5048240;28;20226;-78
2022/04/04 04:41:43;;;;;;;4.05;3.20;;;;;10.40;101101.00;;;;5045303;28;20207;-78
2022/04/04 04:44:10;;;;;;;7.15;3.83;;;;;10.40;101086.00;;;;5047346;28;20597;-78
2022/04/04 04:46:39;;;;;;;5.15;3.75;;;;;10.50;101085.00;;;;5043049;28;20751;-78
2022/04/04 04:49:07;;;;;;;5.20;3.45;;;;;10.50;101078.00;;;;5028261;28;20204;-78
2022/04/04 04:51:34;;;;;;;4.05;3.40;;;;;10.50;101076.00;;;;5035360;28;20770;-78
2022/04/04 04:54:02;;;;;;;5.45;3.75;;;;;10.50;101068.00;;;;5040682;28;20196;-78
2022/04/04 04:56:31;;;;;;;7.28;3.53;;;;;10.50;101064.00;;;;5028127;28;20200;-79
2022/04/04 04:58:58;;;;;;;5.05;3.90;;;;;10.50;101049.00;;;;5045986;28;20192;-79
2022/04/04 05:01:26;;;;;;;4.13;3.58;;;;;10.50;101045.00;;;;5046049;28;20220;-78
2022/04/04 05:03:54;;;;;;;5.15;3.50;;;;;10.50;101045.00;;;;5038483;28;20222;-79
2022/04/04 05:06:21;;;;;;;5.13;4.07;;;;;10.50;101042.00;;;;5047273;28;20188;-78
2022/04/04 05:08:49;;;;;;;5.68;3.60;;;;;10.50;101033.00;;;;5042516;28;20717;-80
2022/04/04 05:11:17;;;;;;;3.83;3.42;;;;;10.50;101031.00;;;;5041348;28;20200;-78
2022/04/04 05:13:46;;;;;;;5.93;3.78;;;;;10.50;101024.00;;;;5048481;28;20986;-79
2022/04/04 05:16:14;;;;;;;5.40;3.85;;;;;10.60;101016.00;;;;5044916;28;20203;-79
2022/04/04 05:18:43;;;;;;;6.00;3.78;;;;;10.60;101012.00;;;;5046341;28;20239;-79
2022/04/04 05:21:11;;;;;;;4.57;3.80;;;;;10.60;101010.00;;;;5037958;28;20727;-79
2022/04/04 05:23:39;;;;;;;4.45;3.63;;;;;10.60;101001.00;;;;5054402;28;20222;-78
2022/04/04 05:26:06;;;;;;;5.78;3.42;;;;;10.60;100993.00;;;;5055553;28;20223;-80
2022/04/04 05:28:34;;;;;;;4.53;3.75;;;;;10.60;100994.00;;;;5055558;28;20199;-79
2022/04/04 05:31:04;;;;;;;5.05;4.03;;;;;10.60;100987.00;;;;5062456;28;20222;-79
2022/04/04 05:33:31;;;;;;;4.22;3.47;;;;;10.70;101000.00;;;;5053696;28;20203;-77
2022/04/04 05:35:58;;;;;;;6.00;4.03;;;;;10.70;100986.00;;;;5035378;28;20255;-78
2022/04/04 05:38:28;;;;;;;3.85;3.35;;;;;10.70;100983.00;;;;5048889;28;20202;-78
2022/04/04 05:40:55;;;;;;;5.32;3.33;;;;;10.70;100971.00;;;;5050218;28;20195;-77
2022/04/04 05:43:22;;;;;;;5.50;4.15;;;;;10.70;100966.00;;;;5046305;28;20673;-78
2022/04/04 05:45:55;;;;;;;5.18;3.70;;;;;10.70;100959.00;;;;5045067;28;20203;-77
2022/04/04 05:48:25;;;;;;;5.25;3.85;;;;;10.80;100958.00;;;;5069898;28;20206;-77
2022/04/04 05:50:53;;;;;;;5.50;4.22;;;;;10.80;100945.00;;;;5049392;28;20195;-78
2022/04/04 05:53:21;;;;;;;5.28;4.28;;;;;10.80;100938.00;;;;5046476;28;20203;-79
2022/04/04 05:55:50;;;;;;;4.55;3.85;;;;;10.80;100930.00;;;;5047245;28;20210;-79
2022/04/04 05:58:17;;;;;;;7.18;5.20;;;;;10.90;100934.00;;;;5047240;28;20237;-79
2022/04/04 06:00:45;;;;;;;6.72;5.07;;;;;10.90;100918.00;;;;5050711;28;20277;-77
2022/04/04 06:03:15;;;;;;;6.15;4.30;;;;;10.90;100918.00;;;;5050348;28;20274;-79
2022/04/04 06:05:42;;;;;;;10.85;7.13;;;;;11.00;100908.00;;;;5046115;28;21008;-78
2022/04/04 06:08:09;;;;;;;6.55;5.15;;;;;11.10;100903.00;;;;5047994;28;20220;-77
2022/04/04 06:10:37;;;;;;;5.70;4.57;;;;;11.10;100908.00;;;;5050415;28;20196;-77
2022/04/04 06:13:05;;;;;;;7.05;5.38;;;;;11.10;100913.00;;;;5045107;28;20208;-77
2022/04/04 06:15:33;;;;;;;8.15;4.60;;;;;11.20;100913.00;;;;5034895;28;20735;-77
2022/04/04 06:18:00;;;;;;;6.90;4.47;;;;;11.20;100915.00;;;;5043053;28;20242;-77
2022/04/04 06:20:27;;;;;;;4.97;4.28;;;;;11.20;100902.00;;;;5049936;28;20689;-77
2022/04/04 06:22:55;;;;;;;4.72;4.18;;;;;11.30;100897.00;;;;5039411;28;20207;-78
2022/04/04 06:25:22;;;;;;;6.78;3.95;;;;;11.30;100899.00;;;;5039795;28;20231;-77
2022/04/04 06:27:50;;;;;;;6.18;4.40;;;;;11.30;100888.00;;;;5039720;28;20295;-77
2022/04/04 06:30:19;;;;;;;5.57;4.00;;;;;11.40;100895.00;;;;5039575;28;20206;-77
2022/04/04 06:32:46;;;;;;;6.13;4.35;;;;;11.40;100885.00;;;;5056748;28;20202;-77
2022/04/04 06:35:14;;;;;;;5.57;4.32;;;;;11.50;100887.00;;;;5045526;28;20206;-76
2022/04/04 06:37:42;;;;;;;5.25;3.63;;;;;11.50;100877.00;;;;5045503;28;20253;-77
2022/04/04 06:40:12;;;;;;;5.35;4.25;;;;;11.60;100872.00;;;;5046165;28;20208;-77
2022/04/04 06:42:40;;;;;;;6.10;4.05;;;;;11.60;100860.00;;;;5037813;28;20550;-77
2022/04/04 06:45:09;;;;;;;5.18;4.30;;;;;11.70;100864.00;;;;5035716;28;20227;-76
2022/04/04 06:47:38;;;;;;;4.38;3.72;;;;;11.70;100859.00;;;;5039839;28;20203;-76
2022/04/04 06:50:06;;;;;;;5.57;4.20;;;;;11.80;100853.00;;;;5036006;28;20196;-76
2022/04/04 06:52:34;;;;;;;5.22;4.20;;;;;11.80;100851.00;;;;5040342;28;20187;-76
2022/04/04 06:55:02;;;;;;;3.85;3.47;;;;;11.80;100850.00;;;;5051071;28;20232;-76
2022/04/04 06:57:29;;;;;;;4.97;3.80;;;;;11.80;100859.00;;;;5047164;28;20191;-77
2022/04/04 06:59:57;;;;;;;5.50;4.43;;;;;11.80;100854.00;;;;5042292;28;20199;-77
2022/04/04 07:02:24;;;;;;;4.93;4.07;;;;;11.90;100850.00;;;;5039377;28;20196;-77
2022/04/04 07:04:54;;;;;;;6.47;4.15;;;;;11.90;100843.00;;;;5036480;28;20278;-77
2022/04/04 07:07:25;;;;;;;5.18;4.28;;;;;12.00;100824.00;;;;5039296;28;20573;-77
2022/04/04 07:09:52;;;;;;;8.45;5.05;;;;;12.00;100832.00;;;;5041648;28;20199;-76
2022/04/04 07:12:19;;;;;;;6.97;3.88;;;;;12.00;100823.00;;;;5043554;28;20694;-76
2022/04/04 07:14:48;;;;;;;5.10;4.20;;;;;12.00;100835.00;;;;5037850;28;20631;-76
2022/04/04 07:17:15;;;;;;;7.90;5.25;;;;;12.10;100830.00;;;;5052693;28;20654;-76
2022/04/04 07:19:42;;;;;;;6.75;3.97;;;;;12.10;100812.00;;;;5045542;28;20670;-76
2022/04/04 07:22:11;;;;;;;4.93;3.85;;;;;12.10;100800.00;;;;5049563;28;20692;-77
2022/04/04 07:24:38;;;;;;;4.82;4.32;;;;;12.20;100805.00;;;;5047910;28;20234;-76
2022/04/04 07:27:06;;;;;;;5.07;3.80;;;;;12.20;100778.00;;;;5049621;28;20203;-77
2022/04/04 07:29:33;;;;;;;4.75;3.55;;;;;12.20;100792.00;;;;5056086;28;20191;-77
2022/04/04 07:32:00;;;;;;;4.88;3.80;;;;;12.30;100773.00;;;;5050828;28;20199;-77
2022/04/04 07:34:27;;;;;;;5.22;4.00;;;;;12.30;100788.00;;;;5049737;28;20203;-77
2022/04/04 07:36:55;;;;;;;6.18;3.92;;;;;12.30;100783.00;;;;5043890;28;20212;-76
2022/04/04 07:39:23;;;;;;;5.53;4.30;;;;;12.30;100764.00;;;;5048082;28;20199;-77
2022/04/04 07:41:51;;;;;;;8.98;4.07;;;;;12.40;100773.00;;;;5048983;28;20575;-77
2022/04/04 07:44:18;;;;;;;5.50;3.42;;;;;12.40;100777.00;;;;5038644;28;20227;-78
2022/04/04 07:46:45;;;;;;;4.90;3.97;;;;;12.40;100760.00;;;;5049075;28;20654;-79
2022/04/04 07:49:12;;;;;;;4.35;3.55;;;;;12.40;100775.00;;;;5048804;28;20195;-78
2022/04/04 07:51:40;;;;;;;4.35;3.80;;;;;12.40;100762.00;;;;5054404;28;20195;-78
2022/04/04 07:54:07;;;;;;;5.15;4.18;;;;;12.40;100748.00;;;;5048721;28;20661;-78
2022/04/04 07:56:36;;;;;;;6.80;4.70;;;;;12.40;100757.00;;;;5062249;28;20848;-78
2022/04/04 07:59:04;;;;;;;6.00;4.30;;;;;12.40;100740.00;;;;5069239;28;20191;-79
2022/04/04 08:01:31;;;;;;;7.22;4.43;;;;;12.40;100744.00;;;;5056091;28;20251;-79
2022/04/04 08:03:58;;;;;;;5.18;3.90;;;;;12.40;100741.00;;;;5040431;28;20577;-78
2022/04/04 08:06:25;;;;;;;4.93;3.75;;;;;12.40;100759.00;;;;5037890;28;20229;-78
2022/04/04 08:08:53;;;;;;;6.97;4.10;;;;;12.50;100729.00;;;;5059935;28;20250;-78
2022/04/04 08:11:20;;;;;;;6.35;4.25;;;;;12.50;100743.00;;;;5046186;28;20251;-78
2022/04/04 08:13:48;;;;;;;6.30;4.47;;;;;12.50;100722.00;;;;5043940;28;20195;-78
2022/04/04 08:16:16;;;;;;;5.75;4.68;;;;;12.50;100742.00;;;;5049517;28;20923;-78
2022/04/04 08:18:43;;;;;;;6.43;4.72;;;;;12.50;100727.00;;;;5049791;28;20269;-79
2022/04/04 08:21:10;;;;;;;9.85;5.10;;;;;12.60;100732.00;;;;5048701;28;20200;-78
2022/04/04 08:23:38;;;;;;;6.70;4.47;;;;;12.60;100734.00;;;;5047598;28;20238;-79
2022/04/04 08:26:05;;;;;;;5.25;4.07;;;;;12.60;100739.00;;;;5046704;28;20223;-79
2022/04/04 08:28:33;;;;;;;7.22;4.47;;;;;12.50;100738.00;;;;5048021;28;20208;-79
2022/04/04 08:31:02;;;;;;;7.68;5.03;;;;;12.50;100736.00;;;;5048027;28;20199;-79
2022/04/04 08:33:29;;;;;;;7.07;4.50;;;;;12.50;100731.00;;;;5058420;28;20289;-80
2022/04/04 08:35:58;;;;;;;8.07;4.70;;;;;12.50;100718.00;;;;5048805;28;20231;-77
2022/04/04 08:38:25;;;;;;;5.93;4.15;;;;;12.50;100720.00;;;;5053908;28;20287;-77
2022/04/04 08:40:53;;;;;;;5.97;4.82;;;;;12.50;100708.00;;;;5036169;28;20205;-77
2022/04/04 08:43:20;;;;;;;5.93;4.18;;;;;12.50;100704.00;;;;5064074;28;20206;-79
2022/04/04 08:45:50;;;;;;;5.07;4.40;;;;;12.50;100699.00;;;;5048691;28;20204;-80
2022/04/04 08:48:19;;;;;;;5.60;5.10;;;;;12.40;100706.00;;;;5052038;28;20247;-79
2022/04/04 08:50:46;;;;;;;7.50;6.07;;;;;12.40;100716.00;;;;5049375;28;20183;-79
2022/04/04 08:53:14;;;;;;;7.38;6.18;;;;;12.40;100703.00;;;;5050543;28;20195;-79
2022/04/04 08:55:41;;;;;;;6.80;5.47;;;;;12.40;100700.00;;;;5057892;28;20338;-80
2022/04/04 08:58:10;;;;;;;7.88;5.85;;;;;12.40;100682.00;;;;5044208;28;20196;-79
2022/04/04 09:00:38;;;;;;;6.72;4.88;;;;;12.40;100695.00;;;;5040048;28;20350;-80
2022/04/04 09:03:08;;;;;;;6.95;5.10;;;;;12.40;100678.00;;;;5047385;28;20200;-79
2022/04/04 09:05:52;;;;;;;8.18;6.20;;;;;12.20;100679.00;;;;5066482;28;20676;-79
2022/04/04 09:08:20;;;;;;;7.07;5.25;;;;;12.30;100687.00;;;;5052681;28;20608;-79
2022/04/04 09:10:50;;;;;;;5.50;4.80;;;;;12.20;100661.00;;;;5043620;28;20200;-79
2022/04/04 09:13:19;;;;;;;5.75;4.85;;;;;12.20;100668.00;;;;5047535;28;20674;-79
2022/04/04 09:15:52;;;;;;;8.30;4.22;;;;;12.20;100665.00;;;;5041942;28;20293;-79
2022/04/04 09:18:24;;;;;;;4.60;3.97;;;;;12.20;100660.00;;;;5041144;28;20216;-79
2022/04/04 09:20:54;;;;;;;4.28;3.88;;;;;12.20;100664.00;;;;5039788;28;20203;-79
2022/04/04 09:23:21;;;;;;;6.18;4.07;;;;;12.20;100659.00;;;;5037916;28;20286;-79
2022/04/04 09:25:48;;;;;;;6.15;4.13;;;;;12.20;100669.00;;;;5042163;28;20199;-79
2022/04/04 09:28:17;;;;;;;4.40;3.15;;;;;12.20;100675.00;;;;5046869;28;20199;-79
2022/04/04 09:31:03;;;;;;;6.00;3.75;;;;;12.20;100657.00;;;;5048451;28;20208;-81
2022/04/04 09:33:36;;;;;;;4.93;3.60;;;;;12.10;100659.00;;;;5051972;28;20248;-79
2022/04/04 09:36:05;;;;;;;3.75;3.00;;;;;12.10;100665.00;;;;5045203;28;20312;-79
2022/04/04 09:38:34;;;;;;;4.47;2.92;;;;;12.10;100651.00;;;;5044662;28;20204;-79
2022/04/04 09:41:06;;;;;;;4.22;3.05;;;;;12.10;100646.00;;;;5037378;28;20203;-81
2022/04/04 09:43:51;;;;;;;3.92;2.83;;;;;12.00;100652.00;;;;5045893;28;20227;-79
2022/04/04 09:46:19;;;;;;;3.53;2.40;;;;;12.10;100642.00;;;;5043075;28;20203;-78
2022/04/04 09:49:06;;;;;;;4.22;3.13;;;;;12.00;100636.00;;;;5031983;28;20204;-79
2022/04/04 09:51:40;;;;;;;4.35;3.42;;;;;12.10;100638.00;;;;5033284;28;20238;-79
2022/04/04 09:54:09;;;;;;;4.20;3.10;;;;;12.10;100636.00;;;;5044403;28;20283;-78
2022/04/04 09:56:37;;;;;;;3.58;2.95;;;;;12.10;100625.00;;;;5044552;28;20220;-79
2022/04/04 09:59:05;;;;;;;3.40;3.10;;;;;12.20;100625.00;;;;5042496;28;20200;-78
2022/04/04 10:01:33;;;;;;;4.57;3.50;;;;;12.20;100630.00;;;;5034864;28;20203;-80
2022/04/04 10:04:03;;;;;;;2.67;2.45;;;;;12.20;100634.00;;;;5047435;28;20269;-78
2022/04/04 10:06:31;;;;;;;3.72;2.72;;;;;12.20;100645.00;;;;5043463;28;20246;-79
2022/04/04 10:09:02;;;;;;;3.47;2.92;;;;;12.10;100633.00;;;;5031076;28;20229;-79
2022/04/04 10:11:31;;;;;;;4.30;3.13;;;;;12.20;100615.00;;;;5045978;28;20279;-80
2022/04/04 10:13:59;;;;;;;3.15;2.85;;;;;12.20;100621.00;;;;5052883;28;20679;-80
2022/04/04 10:16:27;;;;;;;4.03;3.30;;;;;12.20;100625.00;;;;5056999;28;20226;-79
2022/04/04 10:18:57;;;;;;;3.17;2.72;;;;;12.20;100621.00;;;;5035960;28;20220;-79
2022/04/04 10:21:25;;;;;;;4.78;3.13;;;;;12.20;100602.00;;;;5048412;28;20203;-81
2022/04/04 10:23:56;;;;;;;4.22;3.55;;;;;12.20;100593.00;;;;5039577;28;20203;-81
2022/04/04 10:26:31;;;;;;;3.83;2.78;;;;;12.20;100601.00;;;;5042575;28;20322;-79
2022/04/04 10:29:11;;;;;;;4.30;3.00;;;;;12.20;100589.00;;;;5037067;28;20221;-80
2022/04/04 10:31:47;;;;;;;3.60;2.95;;;;;12.20;100582.00;;;;5043664;28;20206;-78
2022/04/04 10:34:17;;;;;;;3.63;3.08;;;;;12.20;100593.00;;;;5046677;28;20605;-79
2022/04/04 10:36:59;;;;;;;3.90;3.10;;;;;12.10;100577.00;;;;5043568;28;20635;-79
2022/04/04 10:39:41;;;;;;;3.13;2.80;;;;;12.20;100586.00;;;;5041421;28;20202;-78
2022/04/04 10:42:26;;;;;;;3.38;2.90;;;;;12.20;100588.00;;;;5032322;28;20287;-79
2022/04/04 10:45:00;;;;;;;5.13;2.33;;;;;12.20;100572.00;;;;5029918;28;20208;-79
2022/04/04 10:47:29;;;;;;;3.55;2.40;;;;;12.30;100568.00;;;;5029656;28;20654;-79
2022/04/04 10:49:57;;;;;;;2.67;2.22;;;;;12.30;100562.00;;;;5030523;28;20192;-79
2022/04/04 10:52:39;;;;;;;2.53;2.33;;;;;12.30;100555.00;;;;5038336;28;20205;-78
2022/04/04 10:55:40;;;;;;;5.32;2.97;;;;;12.40;100557.00;;;;5033938;28;20299;-78
2022/04/04 10:58:20;;;;;;;5.72;2.92;;;;;12.40;100554.00;;;;5036938;28;20967;-78
2022/04/04 11:00:56;;;;;;;6.25;2.63;;;;;12.50;100554.00;;;;5037666;28;20789;-77
2022/04/04 11:03:35;;;;;;;2.45;2.25;;;;;12.50;100550.00;;;;5046883;28;20257;-78
2022/04/04 11:09:22;;;;;;;2.30;2.00;;;;;12.50;100536.00;;;;5046901;28;20728;-78
2022/04/04 11:11:55;;;;;;;3.42;2.10;;;;;12.60;100541.00;;;;5057787;28;20257;-79
2022/04/04 11:14:54;;;;;;;2.53;2.08;;;;;12.50;100518.00;;;;5054745;28;20192;-78
2022/04/04 11:17:30;;;;;;;2.50;2.25;;;;;12.60;100530.00;;;;5052311;28;20196;-78
2022/04/04 11:20:02;;;;;;;2.42;2.22;;;;;12.60;100535.00;;;;5056552;28;20242;-77
2022/04/04 11:22:32;;;;;;;4.47;2.45;;;;;12.70;100529.00;;;;5053936;28;20278;-79
2022/04/04 11:25:03;;;;;;;2.88;1.95;;;;;12.70;100525.00;;;;5035923;28;20203;-77
2022/04/04 11:27:33;;;;;;;3.15;1.98;;;;;12.70;100522.00;;;;5033719;28;20187;-77
2022/04/04 11:30:05;;;;;;;2.40;1.70;;;;;12.70;100521.00;;;;5045120;28;20886;-79
2022/04/04 11:32:38;;;;;;;2.38;1.45;;;;;12.70;100516.00;;;;5052230;28;20206;-78
2022/04/04 11:35:10;;;;;;;2.95;1.35;;;;;12.70;100500.00;;;;5055842;28;20611;-77
2022/04/04 11:37:45;;;;;;;2.25;1.63;;;;;12.80;100502.00;;;;5041304;28;20188;-77
2022/04/04 11:40:14;;;;;;;3.70;1.60;;;;;12.80;100492.00;;;;5047813;28;20657;-77
2022/04/04 11:42:44;;;;;;;1.95;1.75;;;;;12.90;100492.00;;;;5045856;28;20202;-77
2022/04/04 11:45:17;;;;;;;3.15;1.70;;;;;12.90;100494.00;;;;5047964;28;20870;-77
2022/04/04 11:47:50;;;;;;;3.30;2.22;;;;;12.90;100486.00;;;;5032941;28;20192;-76
2022/04/04 11:50:19;;;;;;;2.17;1.70;;;;;12.90;100484.00;;;;5044231;28;20653;-77
2022/04/04 11:52:54;;;;;;;2.72;1.95;;;;;12.90;100479.00;;;;5045173;28;20206;-77
2022/04/04 11:55:25;;;;;;;2.13;1.42;;;;;12.90;100460.00;;;;5038731;28;20283;-78
2022/04/04 11:57:57;;;;;;;1.90;1.50;;;;;13.00;100466.00;;;;5045452;28;20257;-78
2022/04/04 12:00:27;;;;;;;1.65;1.52;;;;;13.00;100472.00;;;;5045518;28;20253;-76
2022/04/04 12:02:55;;;;;;;1.92;1.50;;;;;13.00;100479.00;;;;5051750;28;20206;-75
2022/04/04 12:05:24;;;;;;;1.25;1.08;;;;;13.10;100482.00;;;;5046493;28;20311;-76
2022/04/04 12:07:52;;;;;;;1.55;1.20;;;;;13.10;100465.00;;;;5046744;28;20223;-75
2022/04/04 12:10:29;;;;;;;3.25;1.55;;;;;13.10;100468.00;;;;5044309;28;20650;-76
2022/04/04 12:13:00;;;;;;;2.20;1.25;;;;;13.10;100461.00;;;;5042335;28;20219;-76
2022/04/04 12:15:31;;;;;;;1.80;1.58;;;;;13.20;100451.00;;;;5046300;28;20223;-77
2022/04/04 12:17:59;;;;;;;1.70;1.25;;;;;13.20;100442.00;;;;5046429;28;20310;-77
2022/04/04 12:20:32;;;;;;;1.38;1.08;;;;;13.20;100471.00;;;;5047938;28;20195;-76
2022/04/04 12:25:44;;;;;;;1.50;1.27;;;;;13.20;100441.00;;;;5049768;28;20206;-75
2022/04/04 12:28:22;;;;;;;1.45;1.35;;;;;13.20;100440.00;;;;5048314;28;20215;-76
2022/04/04 12:30:51;;;;;;;1.63;1.35;;;;;13.20;100436.00;;;;5048246;28;20381;-77
2022/04/04 12:33:18;;;;;;;1.17;1.08;;;;;13.30;100434.00;;;;5042781;28;20250;-76